• Join FlightAware (Why Join?)
  • Login
  • US Flag 
10:06PM EDT


 

Airport Tracker/Info


-or-


 

Live Flight TrackerFlight Track Log ✈ VRD236 ✈ 24-May-2013 ✈ KLAX - KORD

Flight Track Log - Related Links

Times and Time Zones

All times are in EDT time to prevent confusion due to time zone crossing. See the VRD236 flight status page for this flight to view local times or setup timezone preferences in your user account.

Time Position Orientation Groundspeed Altitude Reporting Facility
EDT Latitude Longitude Course Direction KTS MPH feet Rate Location/Type
08:14PM 33.9470 -118.4290 262° West 154 177 400  Level FlightAware
08:14PM 33.9440 -118.4620 264° West 169 194 1,600 1,680 Climbing FlightAware
08:15PM 33.9420 -118.4830 263° West 197 227 2,000 900 Climbing FlightAware
08:15PM 33.9390 -118.5240 265° West 256 295 2,400 1,800 Climbing FlightAware
08:16PM 33.9350 -118.5640 263° West 262 302 3,800 2,820 Climbing FlightAware
08:16PM 33.9230 -118.6070 251° West 271 312 5,200 2,820 Climbing FlightAware
08:16PM 33.9140 -118.6160 220° Southwest 273 314 5,700 2,880 Climbing FlightAware
08:17PM 33.8940 -118.6250 200° South 274 315 6,400 2,700 Climbing FlightAware
08:17PM 33.8750 -118.6220 173° South 280 322 7,100 3,000 Climbing FlightAware
08:17PM 33.8570 -118.6130 157° South 281 323 7,900 2,280 Climbing FlightAware
08:18PM 33.8320 -118.5650 122° Southeast 305 351 9,200 2,040 Climbing FlightAware
08:18PM 33.8520 -118.5170 63° Northeast 317 365 10,300 1,500 Climbing FlightAware
08:19PM 33.8940 -118.4600 48° Northeast 362 417 11,000 1,500 Climbing FlightAware
08:20PM 33.9460 -118.3870 49° Northeast 380 437 12,500 1,440 Climbing FlightAware
08:21PM 34.0020 -118.3090 49° Northeast 387 445 14,400 2,160 Climbing FlightAware
08:22PM 34.1120 -118.1440 51° Northeast 413 475 17,400 3,180 Climbing FlightAware
08:23PM 34.1670 -118.0630 51° Northeast 418 481 18,900 1,920 Climbing FlightAware
08:23PM 34.2160 -117.9920 50° Northeast 426 490 20,100 2,220 Climbing FlightAware
08:24PM 34.2660 -117.9190 50° Northeast 412 474 22,000 2,220 Climbing FlightAware
08:25PM 34.3110 -117.8530 50° Northeast 417 480 23,000 1,500 Climbing FlightAware
08:26PM 34.3740 -117.7600 51° Northeast 428 493 24,200 1,440 Climbing FlightAware
08:26PM 34.4280 -117.6810 50° Northeast 437 503 25,300 1,500 Climbing FlightAware
08:27PM 34.4800 -117.6040 51° Northeast 442 509 26,300 1,260 Climbing FlightAware
08:28PM 34.5330 -117.5260 50° Northeast 454 522 27,000 960 Climbing FlightAware
08:28PM 34.5910 -117.4400 51° Northeast 464 534 27,700 840 Climbing FlightAware
08:29PM 34.6480 -117.3550 51° Northeast 476 548 28,200 900 Climbing FlightAware
08:30PM 34.7030 -117.2730 51° Northeast 483 556 28,900 1,020 Climbing FlightAware
08:30PM 34.7680 -117.1770 50° Northeast 486 559 29,700 1,020 Climbing FlightAware
08:31PM 34.8300 -117.0840 51° Northeast 491 565 30,500 1,200 Climbing FlightAware
08:32PM 34.8920 -116.9910 51° Northeast 487 560 31,400 1,200 Climbing FlightAware
08:33PM 34.9500 -116.9040 51° Northeast 486 559 32,200 780 Climbing FlightAware
08:33PM 35.0130 -116.8090 51° Northeast 487 560 32,600 1,200 Climbing FlightAware
08:34PM 35.0910 -116.6910 51° Northeast 480 552 34,200 1,320 Climbing FlightAware
08:35PM 35.1500 -116.6010 51° Northeast 483 556 34,700 840 Climbing FlightAware
08:36PM 35.2060 -116.5170 51° Northeast 478 550 35,400 900 Climbing FlightAware
08:36PM 35.2600 -116.4350 51° Northeast 478 550 35,900 780 Climbing FlightAware
08:37PM 35.3220 -116.3400 51° Northeast 476 548 36,500 660 Climbing FlightAware
08:38PM 35.3710 -116.2640 52° Northeast 478 550 36,800 360 Climbing FlightAware
08:38PM 35.4350 -116.1650 52° Northeast 478 550 37,000 120 Climbing FlightAware
08:39PM 35.4890 -116.0620 57° Northeast 480 552 37,000  Level FlightAware
08:40PM 35.5600 -115.9060 61° Northeast 484 557 37,000  Level FlightAware
08:41PM 35.6270 -115.7600 61° Northeast 485 558 37,100  Climbing FlightAware
08:42PM 35.6700 -115.6650 61° Northeast 485 558 37,000 -120 Descending FlightAware
08:43PM 35.7160 -115.5640 61° Northeast 485 558 37,000 60 Level FlightAware
08:43PM 35.7650 -115.4560 61° Northeast 483 556 37,100  Climbing FlightAware
08:44PM 35.8110 -115.3540 61° Northeast 482 555 37,000 -120 Descending FlightAware
08:45PM 35.8480 -115.2740 60° Northeast 481 554 37,000  Level FlightAware
08:45PM 35.8990 -115.1600 61° Northeast 480 552 37,000  Level FlightAware
08:46PM 35.9430 -115.0610 61° Northeast 480 552 37,000  Level FlightAware
08:47PM 35.9890 -114.9590 61° Northeast 481 554 37,000  Level FlightAware
08:48PM 36.0360 -114.8540 61° Northeast 481 554 37,000  Level FlightAware
08:48PM 36.0790 -114.7560 61° Northeast 483 556 37,000  Level FlightAware
08:49PM 36.1230 -114.6570 61° Northeast 484 557 37,000  Level FlightAware
08:50PM 36.1710 -114.5500 61° Northeast 484 557 37,000  Level FlightAware
08:50PM 36.2130 -114.4520 62° Northeast 484 557 37,000  Level FlightAware
08:51PM 36.2610 -114.3430 61° Northeast 484 557 37,000  Level FlightAware
08:52PM 36.3030 -114.2480 61° Northeast 481 554 37,000  Level FlightAware
08:52PM 36.3460 -114.1490 62° Northeast 482 555 37,000  Level FlightAware
08:53PM 36.3930 -114.0410 62° Northeast 482 555 37,000  Level FlightAware
08:54PM 36.4360 -113.9410 62° Northeast 482 555 37,000  Level FlightAware
08:55PM 36.4830 -113.8340 61° Northeast 483 556 37,000  Level FlightAware
08:55PM 36.5240 -113.7390 62° Northeast 483 556 37,000  Level FlightAware
08:56PM 36.5690 -113.6340 62° Northeast 483 556 37,000  Level FlightAware
08:57PM 36.6120 -113.5320 62° Northeast 483 556 37,000  Level FlightAware
08:57PM 36.6580 -113.4250 62° Northeast 484 557 37,000  Level FlightAware
08:58PM 36.7000 -113.3260 62° Northeast 484 557 37,000  Level FlightAware
08:59PM 36.7450 -113.2190 62° Northeast 484 557 37,000  Level FlightAware
08:59PM 36.7910 -113.1120 62° Northeast 483 556 37,000  Level FlightAware
09:00PM 36.8310 -113.0170 62° Northeast 483 556 37,000  Level FlightAware
09:01PM 36.8750 -112.9120 62° Northeast 486 559 37,000  Level FlightAware
09:02PM 36.9200 -112.8050 62° Northeast 485 558 37,000  Level FlightAware
09:02PM 36.9670 -112.6910 63° Northeast 483 556 37,000  Level FlightAware
09:03PM 37.0090 -112.5920 62° Northeast 483 556 37,000  Level FlightAware
09:04PM 37.0520 -112.4870 63° Northeast 482 555 37,000  Level FlightAware
09:04PM 37.0940 -112.3860 62° Northeast 481 554 37,000  Level FlightAware
09:05PM 37.1350 -112.2850 63° Northeast 480 552 37,000  Level FlightAware
09:06PM 37.1830 -112.1700 62° Northeast 483 556 37,000  Level FlightAware
09:07PM 37.2260 -112.0660 63° Northeast 483 556 37,000  Level FlightAware
09:07PM 37.2690 -111.9650 62° Northeast 483 556 37,000  Level FlightAware
09:08PM 37.3020 -111.8870 62° Northeast 483 556 37,000  Level FlightAware
09:09PM 37.3450 -111.7830 62° Northeast 483 556 37,000  Level FlightAware
09:09PM 37.3780 -111.7070 61° Northeast 483 556 37,000  Level FlightAware
09:10PM 37.4260 -111.5930 62° Northeast 483 556 37,000  Level FlightAware
09:11PM 37.4670 -111.4960 62° Northeast 483 556 37,000  Level FlightAware
09:12PM 37.5090 -111.3950 62° Northeast 483 556 37,000  Level FlightAware
09:12PM 37.5420 -111.3190 61° Northeast 483 556 37,000  Level FlightAware
09:13PM 37.5840 -111.2170 63° Northeast 483 556 37,000  Level FlightAware
09:14PM 37.6160 -111.1410 62° Northeast 483 556 37,000  Level FlightAware
09:15PM 37.6590 -111.0390 62° Northeast 483 556 37,000  Level FlightAware
09:15PM 37.6900 -110.9650 62° Northeast 483 556 37,000  Level FlightAware
09:16PM 37.7340 -110.8610 62° Northeast 483 556 37,000  Level FlightAware
09:17PM 37.8411 -110.5183 62° Northeast 478 550 37,000  Level Denver Center
09:18PM 37.8969 -110.3747 64° Northeast 476 548 37,000  Level Denver Center
09:19PM 37.9619 -110.2069 64° Northeast 474 545 37,000  Level Denver Center
09:20PM 38.0244 -110.0467 64° Northeast 475 547 37,000  Level Denver Center
09:21PM 38.0892 -109.9142 58° Northeast 478 550 37,000  Level Denver Center
09:22PM 38.1825 -109.7697 51° Northeast 474 545 37,000  Level Denver Center
09:23PM 38.2625 -109.6464 50° Northeast 472 543 37,000  Level Denver Center
09:24PM 38.3558 -109.5006 51° Northeast 477 549 37,000  Level Denver Center
09:25PM 38.4347 -109.3742 51° Northeast 476 548 37,000  Level Denver Center
09:26PM 38.5292 -109.2300 50° Northeast 475 547 37,000  Level Denver Center
09:32PM 39.0190 -108.4580 50° Northeast 478 550 37,000  Level FlightAware
09:33PM 39.0770 -108.3650 51° Northeast 479 551 37,000  Level FlightAware
09:34PM 39.1380 -108.2670 51° Northeast 480 552 37,000  Level FlightAware
09:34PM 39.1940 -108.1770 51° Northeast 481 554 37,000  Level FlightAware
09:35PM 39.2550 -108.0780 51° Northeast 481 554 37,000  Level FlightAware
09:36PM 39.3110 -107.9870 51° Northeast 482 555 37,000  Level FlightAware
09:36PM 39.3700 -107.8920 51° Northeast 482 555 37,000 60 Level FlightAware
09:37PM 39.4210 -107.8080 52° Northeast 479 551 37,100  Climbing FlightAware
09:38PM 39.4780 -107.7150 52° Northeast 478 550 37,000 -120 Descending FlightAware
09:38PM 39.5440 -107.6070 52° Northeast 479 551 37,000  Level FlightAware
09:39PM 39.6090 -107.5000 52° Northeast 480 552 37,000  Level FlightAware
09:40PM 39.6640 -107.4100 52° Northeast 473 544 37,000  Level FlightAware
09:40PM 39.6751 -107.3910 53° Northeast 471 542 37,000  Level FlightAware ADS-B
09:40PM 39.7153 -107.3240 52° Northeast 464 534 37,000  Level FlightAware ADS-B
09:41PM 39.7560 -107.2570 52° Northeast 459 528 37,000  Level FlightAware ADS-B
09:41PM 39.7962 -107.1900 52° Northeast 460 529 37,000  Level FlightAware ADS-B
09:42PM 39.8343 -107.1260 52° Northeast 460 529 37,000  Level FlightAware ADS-B
09:43PM 39.8758 -107.0570 52° Northeast 459 528 37,000  Level FlightAware ADS-B
09:43PM 39.9166 -106.9890 52° Northeast 454 522 37,000  Level FlightAware ADS-B
09:44PM 39.9633 -106.9100 52° Northeast 455 524 37,000 60 Level FlightAware ADS-B
09:44PM 40.0195 -106.8160 52° Northeast 456 525 37,100  Climbing FlightAware ADS-B
09:45PM 40.0970 -106.6850 52° Northeast 460 529 37,100 -60 Level FlightAware
09:46PM 40.1460 -106.6020 52° Northeast 462 532 37,000 -120 Descending FlightAware
09:47PM 40.1948 -106.5190 52° Northeast 464 534 37,000  Level FlightAware ADS-B
09:47PM 40.2425 -106.4380 52° Northeast 464 534 37,000  Level FlightAware ADS-B
09:48PM 40.3018 -106.3360 53° Northeast 465 535 37,000 60 Level FlightAware ADS-B
09:49PM 40.3647 -106.2280 53° Northeast 465 535 37,100  Climbing FlightAware ADS-B
09:50PM 40.4220 -106.1290 53° Northeast 463 533 37,000 -60 Descending FlightAware
09:51PM 40.5590 -105.8940 52° Northeast 466 536 37,000  Level FlightAware
09:52PM 40.6120 -105.8010 53° Northeast 469 540 37,000  Level FlightAware
09:53PM 40.6700 -105.7000 53° Northeast 468 539 37,000  Level FlightAware
09:53PM 40.7200 -105.6120 53° Northeast 467 537 37,000  Level FlightAware
09:54PM 40.7770 -105.5110 53° Northeast 466 536 37,000  Level FlightAware
09:55PM 40.8240 -105.4280 53° Northeast 466 536 37,000  Level FlightAware
09:55PM 40.8704 -105.3470 53° Northeast 465 535 37,000  Level FlightAware ADS-B
09:56PM 40.9216 -105.2570 53° Northeast 466 536 37,000  Level FlightAware ADS-B
09:56PM 40.9604 -105.1880 53° Northeast 466 536 37,000  Level FlightAware ADS-B
09:57PM 40.9996 -105.1180 53° Northeast 465 535 37,000  Level FlightAware ADS-B
09:57PM 41.0399 -105.0460 53° Northeast 465 535 37,000  Level FlightAware ADS-B
09:58PM 41.0791 -104.9760 53° Northeast 465 535 37,000  Level FlightAware ADS-B
09:59PM 41.1326 -104.8800 53° Northeast 463 533 37,000  Level FlightAware ADS-B
09:59PM 41.1818 -104.7920 53° Northeast 465 535 37,000  Level FlightAware ADS-B
10:00PM 41.2212 -104.7210 54° Northeast 463 533 37,000 60 Level FlightAware ADS-B
10:00PM 41.2594 -104.6520 54° Northeast 461 531 37,100  Climbing FlightAware ADS-B
10:01PM 41.2968 -104.5850 53° Northeast 458 527 37,000 -120 Descending FlightAware ADS-B
10:01PM 41.3350 -104.5150 54° Northeast 457 526 37,000  Level FlightAware ADS-B
10:02PM 41.3800 -104.4330 54° Northeast 456 525 37,000  Level FlightAware ADS-B
10:02PM 41.4171 -104.3660 54° Northeast 455 524 37,000  Level FlightAware ADS-B
10:03PM 41.4546 -104.2970 54° Northeast 457 526 37,000  Level FlightAware ADS-B
10:03PM 41.4922 -104.2280 54° Northeast 460 529 37,000  Level FlightAware ADS-B
10:04PM 41.5313 -104.1570 54° Northeast 463 533 37,000  Level FlightAware ADS-B
10:04PM 41.5680 -104.0890 54° Northeast 466 536 37,000  Level FlightAware ADS-B
10:05PM 41.6065 -104.0180 54° Northeast 468 539 37,000 60 Level FlightAware ADS-B
10:06PM 41.6461 -103.9450 54° Northeast 471 542 37,100  Climbing FlightAware ADS-B
10:06PM 41.6845 -103.8730 54° Northeast 471 542 37,000 -120 Descending FlightAware ADS-B
10:07PM 41.7254 -103.7980 54° Northeast 472 543 37,000  Level FlightAware ADS-B
10:07PM 41.7638 -103.7260 54° Northeast 472 543 37,000  Level FlightAware ADS-B
10:08PM 41.8025 -103.6540 54° Northeast 471 542 37,000  Level FlightAware ADS-B
10:08PM 41.8166 -103.6270 55° Northeast 471 542 37,000  Level FlightAware ADS-B
10:08PM 41.8509 -103.5490 59° Northeast 471 542 37,000  Level FlightAware ADS-B
10:09PM 41.8698 -103.4960 64° Northeast 471 542 37,000  Level FlightAware ADS-B
10:09PM 41.8825 -103.4520 69° East 471 542 37,000  Level FlightAware ADS-B
10:09PM 41.8958 -103.3970 72° East 471 542 37,000  Level FlightAware ADS-B
10:10PM 41.9084 -103.3240 77° East 470 541 37,000  Level FlightAware ADS-B
10:10PM 41.9175 -103.2360 82° East 468 539 37,000  Level FlightAware ADS-B
10:11PM 41.9257 -103.1480 83° East 468 539 37,000  Level FlightAware ADS-B
10:11PM 41.9340 -103.0590 83° East 467 537 37,000  Level FlightAware ADS-B
10:12PM 41.9420 -102.9730 83° East 464 534 37,000  Level FlightAware ADS-B
10:12PM 41.9499 -102.8870 83° East 460 529 37,000  Level FlightAware ADS-B
10:13PM 41.9577 -102.8010 83° East 458 527 37,000  Level FlightAware ADS-B
10:13PM 41.9654 -102.7150 83° East 457 526 37,000  Level FlightAware ADS-B
10:14PM 41.9729 -102.6310 83° East 457 526 37,000  Level FlightAware ADS-B
10:14PM 41.9803 -102.5470 83° East 456 525 37,000  Level FlightAware ADS-B
10:15PM 41.9906 -102.4300 83° East 457 526 37,000  Level FlightAware ADS-B
10:16PM 42.0030 -102.2860 83° East 460 529 37,000  Level FlightAware ADS-B
10:16PM 42.0102 -102.2010 83° East 456 525 37,000  Level FlightAware ADS-B
10:17PM 42.0181 -102.1070 84° East 456 525 37,000  Level FlightAware ADS-B
10:17PM 42.0252 -102.0220 84° East 455 524 37,000  Level FlightAware ADS-B
10:18PM 42.0329 -101.9280 84° East 454 522 37,000  Level FlightAware ADS-B
10:18PM 42.0399 -101.8430 84° East 452 520 37,000  Level FlightAware ADS-B
10:19PM 42.0484 -101.7380 84° East 449 517 37,000  Level FlightAware ADS-B
10:19PM 42.0531 -101.6890 83° East 449 517 37,000  Level FlightAware ADS-B
10:20PM 42.0649 -101.6030 80° East 449 517 37,000  Level FlightAware ADS-B
10:20PM 42.0667 -101.5836 80° East 449 517 37,000  Level Minneapolis Center
10:21PM 42.0992 -101.4314 74° East 453 521 37,000  Level Denver Center
10:22PM 42.1339 -101.2767 73° East 451 519 37,000  Level Denver Center
10:23PM 42.1708 -101.0944 75° East 452 520 37,000  Level Denver Center
10:24PM 42.2000 -100.9661 73° East 449 517 37,000  Level Denver Center
10:25PM 42.2444 -100.7850 72° East 452 520 37,000  Level Denver Center
10:26PM 42.2889 -100.6022 72° East 457 526 37,000  Level Denver Center
10:27PM 42.3086 -100.4392 81° East 460 529 37,000  Level Denver Center
10:28PM 42.3183 -100.2425 86° East 454 522 37,000  Level Minneapolis Center
10:29PM 42.3278 -100.0575 86° East 462 532 37,000  Level Minneapolis Center
10:30PM 42.3367 -99.8808 86° East 466 536 37,100  Climbing Minneapolis Center
10:31PM 42.3436 -99.7142 87° East 472 543 37,000  Descending Denver Center
10:32PM 42.3522 -99.5275 86° East 468 539 37,100  Climbing Denver Center
10:33PM 42.3600 -99.3544 86° East 463 533 37,000 -60 Descending Denver Center
10:34PM 42.3672 -99.1803 87° East 463 533 37,000  Level Denver Center
10:35PM 42.3750 -99.0053 86° East 464 534 37,000  Level Denver Center
10:36PM 42.3806 -98.8294 87° East 466 536 37,100  Climbing Denver Center
10:37PM 42.3883 -98.6567 86° East 464 534 37,000 -60 Descending Minneapolis Center
10:38PM 42.3922 -98.5208 88° East 457 526 37,000  Level Minneapolis Center
10:39PM 42.4000 -98.3172 87° East 451 519 37,000  Level Minneapolis Center
10:45PM 42.4280 -97.3310 87° East 434 499 37,000  Level FlightAware
10:46PM 42.4310 -97.2110 88° East 433 498 37,000  Level FlightAware
10:47PM 42.4350 -97.0700 88° East 435 501 37,000  Level FlightAware
10:48PM 42.4370 -96.9540 89° East 437 503 37,000  Level FlightAware
10:48PM 42.4390 -96.8570 88° East 436 502 37,000  Level FlightAware
10:49PM 42.4420 -96.7230 88° East 436 502 37,000  Level FlightAware
10:50PM 42.4440 -96.6020 89° East 437 503 37,000  Level FlightAware
10:50PM 42.4460 -96.4920 89° East 438 504 37,000  Level FlightAware
10:51PM 42.4480 -96.3880 88° East 438 504 37,000  Level FlightAware
10:52PM 42.4510 -96.2760 88° East 438 504 37,000  Level FlightAware
10:52PM 42.4520 -96.1440 89° East 436 502 37,000  Level FlightAware
10:53PM 42.4530 -96.0300 89° East 437 503 37,000  Level FlightAware
10:54PM 42.4550 -95.9210 89° East 440 506 37,000  Level FlightAware
10:54PM 42.4560 -95.8350 89° East 441 507 37,000 60 Level FlightAware
10:55PM 42.4570 -95.7170 89° East 441 507 37,100  Climbing FlightAware
10:56PM 42.4590 -95.5310 89° East 437 503 37,000 -120 Descending FlightAware
10:57PM 42.4600 -95.4180 89° East 436 502 37,000  Level FlightAware
10:58PM 42.4610 -95.3110 89° East 436 502 37,000  Level FlightAware
10:58PM 42.4610 -95.1870 90° East 436 502 37,000  Level FlightAware
10:59PM 42.4620 -95.0790 89° East 437 503 37,000  Level FlightAware
11:00PM 42.4630 -94.9680 89° East 438 504 37,000  Level FlightAware
11:00PM 42.4630 -94.8250 90° East 440 506 37,000  Level FlightAware
11:01PM 42.4630 -94.7050 90° East 440 506 37,000  Level FlightAware
11:02PM 42.4640 -94.5840 89° East 442 509 37,000  Level FlightAware
11:03PM 42.4640 -94.4820 90° East 443 510 37,000  Level FlightAware
11:03PM 42.4640 -94.3550 90° East 444 511 37,000  Level FlightAware
11:04PM 42.4640 -94.2420 90° East 446 513 37,000  Level FlightAware
11:05PM 42.4630 -94.1170 91° East 447 514 37,000  Level FlightAware
11:05PM 42.4630 -94.0070 90° East 447 514 37,000 -240 Level FlightAware
11:06PM 42.4620 -93.8870 91° East 446 513 36,700 -660 Descending FlightAware
11:07PM 42.4610 -93.7690 91° East 446 513 36,100 -960 Descending FlightAware
11:08PM 42.4610 -93.6550 90° East 446 513 35,400 -780 Descending FlightAware
11:08PM 42.4600 -93.5320 91° East 447 514 35,000 -300 Descending FlightAware
11:09PM 42.4590 -93.4160 91° East 449 517 35,000  Level FlightAware
11:10PM 42.4570 -93.2930 91° East 447 514 35,000  Level FlightAware
11:10PM 42.4570 -93.2720 90° East 448 516 35,000  Level FlightAware
11:12PM 42.4550 -93.0520 91° East 453 521 35,000  Level FlightAware
11:12PM 42.4520 -92.8460 91° East 453 521 35,000  Level FlightAware
11:13PM 42.4500 -92.7340 91° East 455 524 35,000  Level FlightAware
11:14PM 42.4480 -92.6040 91° East 455 524 35,000 60 Level FlightAware
11:14PM 42.4460 -92.4900 91° East 452 520 35,100  Climbing FlightAware
11:15PM 42.4440 -92.3690 91° East 450 518 35,000 -120 Descending FlightAware
11:16PM 42.4420 -92.2590 91° East 446 513 35,000  Level FlightAware
11:17PM 42.4400 -92.1320 91° East 447 514 35,000  Level FlightAware
11:17PM 42.4370 -92.0220 92° East 450 518 35,000  Level FlightAware
11:18PM 42.4350 -91.9030 91° East 455 524 35,000  Level FlightAware
11:19PM 42.4320 -91.7790 92° East 457 526 35,000  Level FlightAware
11:19PM 42.4290 -91.6630 92° East 461 531 35,000  Level FlightAware
11:20PM 42.4260 -91.5490 92° East 465 535 35,000  Level FlightAware
11:21PM 42.4230 -91.4220 92° East 472 543 35,000  Level FlightAware
11:21PM 42.4190 -91.2900 92° East 476 548 35,000  Level FlightAware
11:22PM 42.4160 -91.1740 92° East 477 549 35,000  Level FlightAware
11:23PM 42.4120 -91.0450 92° East 480 552 35,000  Level FlightAware
11:24PM 42.4080 -90.9110 92° East 487 560 35,000  Level FlightAware
11:24PM 42.4040 -90.7910 93° East 486 559 35,000  Level FlightAware
11:25PM 42.4060 -90.6690 89° East 482 555 35,000 -960 Level FlightAware
11:26PM 42.4190 -90.5390 82° East 483 556 33,700 -2,100 Descending FlightAware
11:26PM 42.4330 -90.4100 82° East 479 551 32,000 -2,400 Descending FlightAware
11:27PM 42.4410 -90.3300 82° East 477 549 31,000 -2,340 Descending FlightAware
11:27PM 42.4530 -90.2100 82° East 473 544 29,400 -2,220 Descending FlightAware
11:28PM 42.4660 -90.0810 82° East 466 536 27,800 -2,160 Descending FlightAware
11:29PM 42.4760 -89.9610 84° East 462 532 26,400 -2,280 Descending FlightAware
11:30PM 42.4700 -89.8490 94° East 464 534 24,800 -2,040 Descending FlightAware
11:30PM 42.4610 -89.7160 95° East 444 511 23,200 -2,040 Descending FlightAware
11:31PM 42.4520 -89.5780 95° East 422 486 21,500 -2,280 Descending FlightAware
11:32PM 42.4440 -89.4590 95° East 412 474 19,900 -2,040 Descending FlightAware
11:33PM 42.4370 -89.3590 95° East 399 459 18,700 -1,980 Descending FlightAware
11:33PM 42.4300 -89.2580 95° East 400 460 17,300 -2,040 Descending FlightAware
11:34PM 42.4220 -89.1440 95° East 396 456 15,800 -1,920 Descending FlightAware
11:35PM 42.4150 -89.0460 95° East 387 445 14,600 -1,800 Descending FlightAware
11:35PM 42.4070 -88.9410 96° East 376 433 13,300 -1,740 Descending FlightAware
11:36PM 42.4010 -88.8470 95° East 366 421 12,200 -1,740 Descending FlightAware
11:37PM 42.3940 -88.7510 96° East 356 410 10,900 -1,620 Descending FlightAware
11:37PM 42.3870 -88.6630 96° East 342 394 10,000 -1,200 Descending FlightAware
11:38PM 42.3830 -88.6050 95° East 319 367 9,600 -900 Descending FlightAware
11:38PM 42.3790 -88.5510 96° East 302 348 9,200 -1,020 Descending FlightAware
11:39PM 42.3750 -88.5050 97° East 294 338 8,700 -900 Descending FlightAware
11:39PM 42.3690 -88.4770 106° East 284 327 8,600 -540 Descending FlightAware
11:40PM 42.3550 -88.4310 112° Southeast 263 303 8,300 -600 Descending FlightAware
11:40PM 42.3480 -88.4090 113° Southeast 255 293 8,200 -1,020 Descending FlightAware
11:41PM 42.3150 -88.3710 140° Southeast 242 278 7,400 -1,260 Descending FlightAware
11:41PM 42.2830 -88.3680 176° South 237 273 6,800 -900 Descending FlightAware
11:41PM 42.2530 -88.3650 176° South 236 272 6,600 -300 Descending FlightAware
11:42PM 42.2370 -88.3630 175° South 239 275 6,600  Level FlightAware
11:42PM 42.2080 -88.3590 174° South 238 274 6,600  Level FlightAware
11:43PM 42.1760 -88.3560 176° South 237 273 6,600  Level FlightAware
11:43PM 42.1450 -88.3520 175° South 238 274 6,600 -120 Level FlightAware
11:44PM 42.1150 -88.3490 176° South 235 270 6,500 -780 Descending FlightAware
11:44PM 42.0820 -88.3440 174° South 236 272 5,900 -1,320 Descending FlightAware
11:45PM 42.0560 -88.3280 155° Southeast 234 269 5,300 -1,320 Descending FlightAware
11:45PM 42.0280 -88.3110 156° South 232 267 4,700 -1,320 Descending FlightAware
11:45PM 42.0030 -88.2900 148° Southeast 232 267 4,100 -1,200 Descending FlightAware
11:46PM 41.9880 -88.2540 119° Southeast 232 267 3,600 -600 Descending FlightAware
11:46PM 41.9750 -88.2190 117° Southeast 236 272 3,600  Level FlightAware
11:47PM 41.9700 -88.2000 109° East 234 269 3,600  Level FlightAware
11:47PM 41.9680 -88.1750 96° East 232 267 3,600 -660 Level FlightAware
11:48PM 41.9680 -88.1200 90° East 221 254 3,000 -1,080 Descending FlightAware
11:48PM 41.9690 -88.0840 88° East 210 242 2,400 -1,080 Descending FlightAware
11:49PM 41.9690 -88.0340 90° East 178 205 1,800 -960 Descending FlightAware
11:49PM 41.9690 -88.0030 90° East 148 170 1,300 -1,020 Descending FlightAware
11:49PM 41.9690 -87.9910 90° East 134 154 1,100 -720 Descending FlightAware
11:50PM 41.9690 -87.9600 90° East 134 154 700 -600 Descending FlightAware
11:50PM 41.9690 -87.9430 90° East 134 154 500 -600 Descending FlightAware
11:51PM 41.9690 -87.9180 90° East 115 132 -1,080 Descending FlightAware
11:52PM 41.9700 -87.9020 85° East 17 20  Level FlightAware
11:52PM 41.9710 -87.9010 37° Northeast 15 17  Level FlightAware
11:52PM 41.9710 -87.9000 90° East 32 37  Level FlightAware
11:53PM 41.9720 -87.8980 56° Northeast 27 31  Level FlightAware
11:53PM 41.9720 -87.8960 90° East 26 30  Level FlightAware
11:53PM 41.9730 -87.8950 37° Northeast 28 32  Level FlightAware
11:54PM 41.9750 -87.8920 48° Northeast 29 33  Level FlightAware
11:56PM 41.9770 -87.8940 323° Northwest 17 20  Level FlightAware
11:56PM 41.9780 -87.8950 323° Northwest 19 22  Level FlightAware
11:56PM 41.9780 -87.8960 270° West 21 24  Level FlightAware
11:59PM 41.9667 -87.9000 143° Southeast  Level FlightAware Approximate